KMTJ

Montrose Regional Airport

Montrose, Colorado, USA
METAR KMTJ 240153Z AUTO 26011KT 10SM CLR 23/M08 A3003 RMK AO2 SLP105 T02281083
Observed Flight Rules
May-24 @ 01:53 UTC (18 minutes ago) Visual Flight Rules
Wind Visibility Clouds
260° at 11 knots 10 miles
  • Clear skies
Temperatures Readings
Current 23°C / 73°F
Dewpoint -8°C / 18°F
Humidity 12%
Altimeter 30.03" Hg
Pressure 1010.5 hPa
Elevation 1750
METAR KMTJ 240153Z AUTO 26011KT 10SM CLR 23/M08 A3003 RMK AO2 SLP105 T02281083
Observed Flight Rules
May-24 @ 01:53 UTC
(18 minutes ago)
VFR
Wind Visibility
260° at 11 knots 10 miles
Clouds
  • Clear skies
Temperature Dewpoint
23°C / 73°F -8°C / 18°F
Humidity Altimeter Pressure
12% 30.03" Hg 1010.5 hPa